Hightstown, NJ

5:29 AM EST on January 28, 2015 (GMT -0500)
East Windsor - rural | Change Station
CLOSE
Current Station
Personal Weather Station
Location: East Windsor, NJ
Elevation: 174 ft
Nearby Weather Stations

Elev 174 ft 40.24 °N, 74.52 °W | Updated 7 seconds ago

Clear
Clear
13.1 °F
Feels Like 13 °F
N
0.0
Wind Variable Wind from NW
Gusts 5.0 mph

Today
High -- | Low -- °F
--% Chance of Precip.
Yesterday
High -- | Low -- °F
Precip. -- in
7:10 AM 5:11 PM
Waxing Gibbous, 63% visible
Pressure 29.96 in
Visibility 10.0 miles
Clouds Clear
Windchill 13 °F
Dew Point 4 °F
Humidity 66%
Rainfall 0.00 in
Snow Depth Not available.
UV 0 out of 12
Pollen .10 out of 12
Air Quality Not available.
Flu Activity Not available.
METAR KTTN 280953Z AUTO 33006KT 10SM CLR M08/M18 A2997 RMK AO2 SLP145 T10831178

More Conditions Fewer Conditions

Pressure 29.96 in
Visibility 10.0 miles
Clouds Clear
Windchill 13 °F
Dew Point 4 °F
Humidity 66%
Rainfall 0.00 in
Snow Depth Not available.
UV 0 out of 12
Pollen .10 out of 12
Air Quality Not available.
Flu Activity Not available.
METAR KTTN 280953Z AUTO 33006KT 10SM CLR M08/M18 A2997 RMK AO2 SLP145 T10831178

More Conditions Fewer Conditions

10-Day Weather Forecast

Almanac

Astronomy

Jan. 28, 2015 Rise Set
Actual Time
Civil Twilight
Nautical Twilight
Astronomical Twilight
Moon
Length of Visible Light
Length of Day
Tomorrow will be .
, % of the Moon is Illuminated

Today's Extremes

State Highs State Lows

Community

WunderPhotos

Upload Photos

1,791,121 photos uploaded!

WunderBlogs® & News

Nearby

Air Quality

  Air Quality AQ Index Pollutant
Not available.

Snow Depth

Station Depth Elevation

Earthquake Activity

City Distance Mag. Time & Date
Minimum magnitude displayed is 2.5.

Coastal Water Temperatures

Place Temperature

Nearby Weather Stations